createdAt,value
2018-07-02T00:01:27.383Z,85.95
2018-07-02T00:03:56.091Z,85.55
2018-07-02T00:06:44.813Z,85.90
2018-07-02T00:09:13.600Z,85.16
2018-07-02T00:11:42.259Z,85.78
2018-07-02T00:14:10.962Z,85.82
2018-07-02T00:16:39.690Z,85.08
2018-07-02T00:19:08.342Z,85.13
2018-07-02T00:21:37.069Z,83.86
2018-07-02T00:24:05.790Z,83.75
2018-07-02T00:26:34.551Z,83.69
2018-07-02T00:29:03.227Z,83.02
2018-07-02T00:31:31.905Z,83.58
2018-07-02T00:34:00.878Z,84.77
2018-07-02T00:36:29.568Z,84.27
2018-07-02T00:38:58.310Z,84.59
2018-07-02T00:41:27.098Z,84.02
2018-07-02T00:43:55.783Z,84.66
2018-07-02T00:46:24.568Z,84.23
2018-07-02T00:48:53.222Z,84.61
2018-07-02T00:51:22.364Z,85.04
2018-07-02T00:53:51.011Z,85.24
2018-07-02T00:56:19.768Z,84.95
2018-07-02T00:58:48.606Z,85.43
2018-07-02T01:01:17.880Z,85.24
2018-07-02T01:03:46.614Z,85.52
2018-07-02T01:06:15.287Z,85.95
2018-07-02T01:08:44.005Z,86.08
2018-07-02T01:11:12.753Z,85.94
2018-07-02T01:13:41.420Z,85.14
2018-07-02T01:16:10.208Z,85.48
2018-07-02T01:18:38.886Z,84.54
2018-07-02T01:21:07.684Z,84.79
2018-07-02T01:23:36.331Z,84.53
2018-07-02T01:26:05.012Z,84.64
2018-07-02T01:28:33.710Z,84.52
2018-07-02T01:31:02.360Z,84.46
2018-07-02T01:33:31.288Z,84.57
2018-07-02T01:36:00.141Z,84.53
2018-07-02T01:38:28.906Z,84.45
2018-07-02T01:40:57.616Z,84.61
2018-07-02T01:43:26.336Z,84.32
2018-07-02T01:45:55.058Z,84.56
2018-07-02T01:48:23.738Z,85.26
2018-07-02T01:50:52.428Z,85.28
2018-07-02T01:53:21.497Z,84.80
2018-07-02T01:55:50.479Z,85.01
2018-07-02T01:58:19.209Z,85.14
2018-07-02T02:00:47.934Z,84.21
2018-07-02T02:03:16.627Z,84.27
2018-07-02T02:05:45.327Z,84.77
2018-07-02T02:08:14.047Z,84.34
2018-07-02T02:10:42.787Z,83.14
2018-07-02T02:13:11.492Z,83.59
2018-07-02T02:15:40.164Z,83.59
2018-07-02T02:18:09.009Z,83.66
2018-07-02T02:20:37.653Z,84.61
2018-07-02T02:23:06.303Z,84.06
2018-07-02T02:25:35.026Z,83.71
2018-07-02T02:28:03.715Z,83.80
2018-07-02T02:30:32.443Z,83.51
2018-07-02T02:33:01.162Z,82.08
2018-07-02T02:35:29.874Z,83.16
2018-07-02T02:37:58.559Z,83.00
2018-07-02T02:40:27.233Z,82.67
2018-07-02T02:42:55.915Z,82.76
2018-07-02T02:45:24.602Z,82.58
2018-07-02T02:47:53.287Z,82.51
2018-07-02T02:50:21.986Z,81.92
2018-07-02T02:52:50.659Z,81.36
2018-07-02T02:55:19.354Z,82.72
2018-07-02T02:57:47.980Z,84.40
2018-07-02T03:00:16.727Z,84.43
2018-07-02T03:02:45.380Z,84.85
2018-07-02T03:05:14.136Z,84.58
2018-07-02T03:07:42.830Z,84.62
2018-07-02T03:10:11.541Z,84.80
2018-07-02T03:12:40.256Z,84.73
2018-07-02T03:15:08.975Z,84.72
2018-07-02T03:17:37.661Z,85.10
2018-07-02T03:20:06.444Z,85.18
2018-07-02T03:22:35.211Z,85.19
2018-07-02T03:25:04.041Z,85.45
2018-07-02T03:27:32.704Z,85.09
2018-07-02T03:30:01.450Z,85.02
2018-07-02T03:32:30.119Z,84.91
2018-07-02T03:34:58.825Z,84.75
2018-07-02T03:37:27.679Z,84.60
2018-07-02T03:39:56.319Z,84.43
2018-07-02T03:42:25.114Z,84.57
2018-07-02T03:44:53.802Z,84.75
2018-07-02T03:47:22.888Z,84.78
2018-07-02T03:49:51.592Z,84.97
2018-07-02T03:52:20.276Z,84.60
2018-07-02T03:54:48.997Z,85.35
2018-07-02T03:57:17.782Z,84.96
2018-07-02T03:59:46.446Z,85.19
2018-07-02T04:02:15.411Z,85.09
2018-07-02T04:04:44.075Z,84.93
2018-07-02T04:07:12.927Z,84.57
2018-07-02T04:09:41.645Z,84.69
2018-07-02T04:12:10.401Z,84.56
2018-07-02T04:14:39.027Z,84.77
2018-07-02T04:17:07.842Z,85.08
2018-07-02T04:19:36.526Z,84.96
2018-07-02T04:22:05.278Z,84.71
2018-07-02T04:24:33.941Z,85.13
2018-07-02T04:27:02.688Z,84.38
2018-07-02T04:29:31.504Z,84.31
2018-07-02T04:32:00.210Z,84.21
2018-07-02T04:34:29.061Z,85.17
2018-07-02T04:36:57.778Z,84.86
2018-07-02T04:39:26.456Z,83.10
2018-07-02T04:41:55.151Z,83.69
2018-07-02T04:44:24.428Z,82.23
2018-07-02T04:46:53.102Z,83.30
2018-07-02T04:49:21.901Z,83.40
2018-07-02T04:51:50.605Z,82.38
2018-07-02T04:54:19.391Z,82.43
2018-07-02T04:56:48.062Z,81.56
2018-07-02T04:59:16.711Z,81.32
2018-07-02T05:01:45.427Z,81.30
2018-07-02T05:04:14.084Z,81.69
2018-07-02T05:06:42.764Z,81.22
2018-07-02T05:09:11.389Z,81.17
2018-07-02T05:11:40.038Z,81.09
2018-07-02T05:14:09.429Z,79.46
2018-07-02T05:16:38.063Z,80.25
2018-07-02T08:09:35.016Z,64.77
2018-07-02T08:12:03.736Z,66.67
2018-07-02T08:14:33.072Z,64.81
2018-07-02T08:17:01.775Z,63.99
2018-07-02T08:19:30.478Z,64.38
2018-07-02T08:21:59.264Z,64.27
2018-07-02T08:24:28.001Z,64.36
2018-07-02T08:26:57.572Z,63.50
2018-07-02T08:29:26.303Z,64.85
2018-07-02T08:31:55.025Z,65.04
2018-07-02T08:34:23.914Z,64.71
2018-07-02T08:36:52.638Z,64.51
2018-07-02T08:39:21.308Z,65.10
2018-07-02T08:41:50.010Z,65.00
2018-07-02T08:44:18.740Z,64.74
2018-07-02T08:46:47.493Z,63.76
2018-07-02T08:49:16.268Z,65.42
2018-07-02T08:51:44.976Z,63.03
2018-07-02T08:54:14.015Z,61.87
2018-07-02T08:56:43.979Z,61.92
2018-07-02T08:59:13.201Z,62.85
2018-07-02T09:01:41.940Z,61.02
2018-07-02T09:04:10.624Z,62.48
2018-07-02T09:06:39.280Z,62.45
2018-07-02T09:09:10.509Z,63.39
2018-07-02T09:11:39.271Z,61.76
2018-07-02T09:14:07.910Z,62.60
2018-07-02T09:16:36.629Z,62.51
2018-07-02T09:19:05.432Z,61.83
2018-07-02T09:21:34.229Z,60.81
2018-07-02T09:24:02.939Z,58.41
2018-07-02T09:26:31.751Z,58.34
2018-07-02T09:29:00.411Z,59.62
2018-07-02T09:31:29.251Z,60.69
2018-07-02T09:33:58.088Z,60.72
2018-07-02T09:36:26.827Z,59.19
2018-07-02T09:38:55.553Z,58.46
2018-07-02T09:41:24.246Z,59.28
2018-07-02T09:43:53.134Z,58.66
2018-07-02T09:46:21.850Z,57.73
2018-07-02T09:48:50.651Z,56.41
2018-07-02T09:51:19.452Z,58.67
2018-07-02T09:53:48.213Z,57.77
2018-07-02T09:56:17.244Z,59.22
2018-07-02T09:58:46.580Z,58.06
2018-07-02T10:01:15.225Z,58.00
2018-07-02T10:03:43.992Z,56.52
2018-07-02T10:06:12.667Z,58.00
2018-07-02T10:08:41.354Z,56.72
2018-07-02T10:11:10.032Z,55.77
2018-07-02T10:13:38.793Z,59.16
2018-07-02T10:16:07.482Z,57.72
2018-07-02T10:18:36.170Z,55.74
2018-07-02T10:21:04.991Z,56.52
2018-07-02T10:23:37.334Z,55.86
2018-07-02T10:26:02.493Z,55.29
2018-07-02T10:28:31.240Z,56.81
2018-07-02T10:31:00.147Z,55.03
2018-07-02T10:33:28.866Z,54.91
2018-07-02T10:35:57.651Z,55.55
2018-07-02T10:38:26.363Z,56.88
2018-07-02T10:40:55.019Z,56.25
2018-07-02T10:43:23.803Z,56.30
2018-07-02T10:45:52.610Z,54.76
2018-07-02T10:48:21.306Z,53.14
2018-07-02T10:50:50.321Z,54.15
2018-07-02T10:53:19.022Z,52.24
2018-07-02T10:55:47.840Z,53.79
2018-07-02T10:58:16.465Z,53.36
2018-07-02T11:00:45.194Z,52.05
2018-07-02T11:03:13.915Z,51.37
2018-07-02T11:05:42.600Z,52.90
2018-07-02T11:08:11.259Z,51.50
2018-07-02T11:10:39.895Z,50.35
2018-07-02T11:13:11.098Z,50.43
2018-07-02T11:15:41.687Z,48.60
2018-07-02T11:18:10.431Z,48.58
2018-07-02T11:20:40.163Z,47.74
2018-07-02T11:23:09.104Z,46.29
2018-07-02T11:25:38.539Z,47.99
2018-07-02T11:28:08.135Z,46.53
2018-07-02T11:30:37.154Z,44.35
2018-07-02T11:33:06.119Z,44.06
2018-07-02T11:35:34.842Z,44.32
2018-07-02T11:38:03.646Z,43.23
2018-07-02T11:40:32.347Z,43.05
2018-07-02T11:43:01.028Z,43.84
2018-07-02T11:45:29.739Z,42.01
2018-07-02T11:47:58.403Z,43.03
2018-07-02T11:50:27.035Z,41.83
2018-07-02T11:52:55.801Z,42.51
2018-07-02T11:55:24.467Z,41.71
2018-07-02T11:57:53.179Z,43.08
2018-07-02T12:00:21.925Z,41.64
2018-07-02T12:02:50.649Z,43.07
2018-07-02T12:05:19.616Z,40.67
2018-07-02T12:07:48.325Z,42.07
2018-07-02T12:10:17.072Z,40.19
2018-07-02T12:12:45.774Z,40.89
2018-07-02T12:15:14.868Z,42.66
2018-07-02T12:17:43.600Z,40.28
2018-07-02T12:20:12.393Z,39.88
2018-07-02T12:22:41.152Z,41.69
2018-07-02T12:25:09.866Z,40.14
2018-07-02T12:27:38.546Z,40.54
2018-07-02T12:30:08.596Z,39.17
2018-07-02T12:32:37.558Z,40.28
2018-07-02T12:35:06.285Z,39.08
2018-07-02T12:37:35.948Z,40.13
2018-07-02T12:40:04.791Z,40.35
2018-07-02T12:42:33.518Z,42.79
2018-07-02T12:45:02.331Z,45.14
2018-07-02T12:47:31.043Z,46.18
2018-07-02T12:49:59.735Z,48.18
2018-07-02T12:52:28.521Z,48.83
2018-07-02T12:54:57.298Z,51.98
2018-07-02T12:57:26.435Z,48.50
2018-07-02T12:59:55.194Z,50.33
2018-07-02T13:02:24.015Z,52.89
2018-07-02T13:04:53.111Z,58.95
2018-07-02T13:07:21.825Z,60.42
2018-07-02T13:09:50.565Z,60.34
2018-07-02T13:12:19.361Z,52.05
2018-07-02T13:14:48.404Z,51.36
2018-07-02T13:17:17.143Z,46.11
2018-07-02T13:19:45.907Z,48.79
2018-07-02T13:22:14.723Z,47.14
2018-07-02T13:24:43.471Z,47.71
2018-07-02T13:27:12.853Z,48.68
2018-07-02T13:29:41.665Z,49.16
2018-07-02T13:32:10.445Z,48.08
2018-07-02T13:34:39.176Z,44.81
2018-07-02T13:37:07.983Z,43.34
2018-07-02T13:39:36.773Z,43.33
2018-07-02T13:42:05.508Z,46.96
2018-07-02T13:44:34.182Z,50.13
2018-07-02T13:47:02.980Z,51.39
2018-07-02T13:49:32.026Z,51.24
2018-07-02T13:52:00.754Z,51.57
2018-07-02T13:54:29.435Z,51.62
2018-07-02T13:56:58.229Z,51.18
2018-07-02T13:59:26.998Z,51.31
2018-07-02T14:01:55.804Z,49.96
2018-07-02T14:04:24.671Z,48.18
2018-07-02T14:06:54.815Z,49.82
2018-07-02T14:09:23.595Z,48.41
2018-07-02T14:11:52.964Z,48.22
2018-07-02T14:14:21.694Z,48.18
2018-07-02T14:16:50.509Z,47.96
2018-07-02T14:19:19.965Z,47.63
2018-07-02T14:21:48.727Z,47.97
2018-07-02T14:24:17.564Z,46.83
2018-07-02T14:26:46.254Z,45.40
2018-07-02T14:29:15.021Z,43.63
2018-07-02T14:31:43.710Z,44.50
2018-07-02T14:34:12.364Z,43.94
2018-07-02T14:36:41.046Z,43.93
2018-07-02T14:39:11.415Z,42.45
2018-07-02T14:41:40.137Z,44.56
2018-07-02T14:44:08.887Z,43.65
2018-07-02T14:46:37.652Z,44.91
2018-07-02T14:49:06.672Z,43.90
2018-07-02T14:51:35.386Z,43.13
2018-07-02T14:54:04.201Z,41.44
2018-07-02T14:56:32.947Z,41.25
2018-07-02T14:59:01.701Z,40.39
2018-07-02T15:01:30.536Z,39.64
2018-07-02T15:03:59.245Z,41.25
2018-07-02T15:06:27.965Z,39.85
2018-07-02T15:08:56.688Z,39.46
2018-07-02T15:11:25.443Z,40.48
2018-07-02T15:13:54.116Z,40.58
2018-07-02T15:16:22.832Z,41.27
2018-07-02T15:18:52.455Z,39.79
2018-07-02T15:21:21.122Z,41.06
2018-07-02T15:23:49.823Z,39.58
2018-07-02T15:26:18.478Z,39.98
2018-07-02T15:28:47.242Z,38.01
2018-07-02T15:31:16.256Z,40.60
2018-07-02T15:33:45.331Z,38.97
2018-07-02T15:36:14.108Z,40.21
2018-07-02T15:38:42.775Z,40.55
2018-07-02T15:41:11.567Z,40.08
2018-07-02T15:43:40.280Z,40.88
2018-07-02T15:46:09.261Z,40.30
2018-07-02T15:48:37.982Z,42.14
2018-07-02T15:51:06.828Z,41.22
2018-07-02T15:53:35.476Z,43.03
2018-07-02T15:56:04.247Z,41.45
2018-07-02T15:58:33.035Z,42.79
2018-07-02T16:01:02.282Z,42.16
2018-07-02T16:03:30.976Z,43.63
2018-07-02T16:05:59.733Z,42.93
2018-07-02T16:08:28.438Z,44.34
2018-07-02T16:10:57.078Z,44.15
2018-07-02T16:13:25.759Z,43.73
2018-07-02T16:15:54.484Z,45.02
2018-07-02T16:18:23.238Z,44.20
2018-07-02T16:20:52.161Z,46.21
2018-07-02T16:23:20.828Z,44.87
2018-07-02T16:25:49.517Z,44.40
2018-07-02T16:28:18.219Z,44.08
2018-07-02T16:30:47.258Z,44.04
2018-07-02T16:33:15.953Z,45.45
2018-07-02T16:35:44.775Z,45.37
2018-07-02T16:38:13.513Z,46.29
2018-07-02T16:40:42.190Z,45.18
2018-07-02T16:43:10.910Z,45.69
2018-07-02T16:45:39.703Z,45.02
2018-07-02T16:48:08.992Z,44.33
2018-07-02T16:50:37.810Z,44.44
2018-07-02T16:53:06.588Z,45.63
2018-07-02T16:55:35.334Z,45.80
2018-07-02T16:58:04.146Z,46.14
2018-07-02T17:00:32.910Z,45.92
2018-07-02T17:03:01.569Z,45.90
2018-07-02T17:05:30.244Z,47.20
2018-07-02T17:07:58.930Z,47.63
2018-07-02T17:10:27.726Z,49.45
2018-07-02T17:12:56.619Z,49.06
2018-07-02T17:15:25.325Z,50.19
2018-07-02T17:17:54.021Z,51.58
2018-07-02T17:20:23.126Z,51.73
2018-07-02T17:22:51.910Z,52.10
2018-07-02T17:25:21.495Z,52.60
2018-07-02T17:27:50.167Z,51.95
2018-07-02T17:30:18.996Z,51.91
2018-07-02T17:32:47.904Z,52.58
2018-07-02T17:35:16.639Z,53.28
2018-07-02T17:37:45.419Z,53.36
2018-07-02T17:40:14.500Z,53.11
2018-07-02T17:42:43.207Z,54.56
2018-07-02T17:45:12.444Z,54.68
2018-07-02T17:47:41.338Z,53.21
2018-07-02T17:50:10.043Z,52.79
2018-07-02T17:52:38.719Z,52.90
2018-07-02T17:55:07.605Z,53.51
2018-07-02T17:57:38.055Z,54.41
2018-07-02T18:00:07.766Z,53.65
2018-07-02T18:02:36.609Z,53.92
2018-07-02T18:05:05.726Z,53.80
2018-07-02T18:07:37.525Z,53.13
2018-07-02T18:10:06.525Z,53.20
2018-07-02T18:12:35.200Z,53.66
2018-07-02T18:15:04.237Z,53.97
2018-07-02T18:17:33.049Z,53.63
2018-07-02T18:20:02.584Z,55.30
2018-07-02T18:22:31.383Z,55.54
2018-07-02T18:25:00.060Z,55.94
2018-07-02T18:27:29.897Z,56.14
2018-07-02T18:29:58.609Z,56.38
2018-07-02T18:32:27.326Z,56.91
2018-07-02T18:34:56.007Z,57.82
2018-07-02T18:37:24.728Z,58.33
2018-07-02T18:39:53.482Z,58.17
2018-07-02T18:42:22.209Z,57.77
2018-07-02T18:44:50.927Z,57.49
2018-07-02T18:47:19.616Z,58.27
2018-07-02T18:49:48.322Z,58.44
2018-07-02T18:52:17.043Z,58.60
2018-07-02T18:54:46.377Z,59.10
2018-07-02T18:57:15.129Z,58.96
2018-07-02T18:59:43.808Z,59.76
2018-07-02T19:02:12.591Z,59.62
2018-07-02T19:04:41.401Z,59.36
2018-07-02T19:07:10.201Z,60.64
2018-07-02T19:09:38.894Z,60.72
2018-07-02T19:12:07.644Z,60.11
2018-07-02T19:14:36.422Z,60.50
2018-07-02T19:17:05.436Z,61.01
2018-07-02T19:19:34.138Z,60.47
2018-07-02T19:22:02.927Z,61.02
2018-07-02T19:24:31.716Z,60.42
2018-07-02T19:27:00.455Z,60.55
2018-07-02T19:30:58.536Z,60.25
2018-07-02T19:33:27.262Z,61.42
2018-07-02T19:35:55.949Z,59.98
2018-07-02T19:38:24.605Z,60.79
2018-07-02T19:40:53.342Z,62.12
2018-07-02T19:43:22.063Z,62.67
2018-07-02T19:45:51.053Z,62.29
2018-07-02T19:48:19.770Z,61.73
2018-07-02T19:50:48.531Z,61.61
2018-07-02T19:53:17.337Z,61.48
2018-07-02T19:55:46.244Z,62.47
2018-07-02T19:58:15.012Z,62.86
2018-07-02T20:00:46.279Z,62.63
2018-07-02T20:03:14.987Z,62.20
2018-07-02T20:05:43.755Z,62.58
2018-07-02T20:08:12.548Z,63.15
2018-07-02T20:10:41.361Z,63.87
2018-07-02T20:13:10.190Z,63.64
2018-07-02T20:15:38.880Z,63.58
2018-07-02T20:18:07.624Z,63.85
2018-07-02T20:20:36.935Z,63.53
2018-07-02T20:23:05.716Z,64.29
2018-07-02T20:25:34.439Z,64.08
2018-07-02T20:28:03.155Z,64.40
2018-07-02T20:30:31.925Z,64.47
2018-07-02T20:33:00.667Z,64.36
2018-07-02T20:35:29.759Z,64.30
2018-07-02T20:37:58.451Z,63.92
2018-07-02T20:40:27.094Z,64.22
2018-07-02T20:42:55.808Z,64.37
2018-07-02T20:45:24.475Z,64.43
2018-07-02T20:47:53.149Z,64.86
2018-07-02T20:50:21.840Z,65.01
2018-07-02T20:52:50.502Z,64.90
2018-07-02T20:55:19.192Z,65.89
2018-07-02T20:57:47.951Z,66.25
2018-07-02T21:00:16.633Z,66.43
2018-07-02T21:02:45.326Z,66.85
2018-07-02T21:05:14.185Z,66.68
2018-07-02T21:07:42.903Z,67.01
2018-07-02T21:10:11.629Z,66.88
2018-07-02T21:12:40.407Z,67.48
2018-07-02T21:15:09.171Z,68.24
2018-07-02T21:17:37.912Z,68.14
2018-07-02T21:20:06.719Z,68.18
2018-07-02T21:22:36.142Z,67.89
2018-07-02T21:25:04.928Z,68.52
2018-07-02T21:27:33.984Z,69.02
2018-07-02T21:30:04.647Z,69.08
2018-07-02T21:32:33.363Z,69.89
2018-07-02T21:35:02.116Z,70.02
2018-07-02T21:37:30.899Z,70.47
2018-07-02T21:39:59.649Z,70.68
2018-07-02T21:42:28.355Z,70.88
2018-07-02T21:44:57.050Z,71.15
2018-07-02T21:47:26.590Z,71.54
2018-07-02T21:49:55.762Z,71.91
2018-07-02T21:52:24.787Z,71.48
2018-07-02T21:54:53.723Z,71.36
2018-07-02T21:57:22.579Z,71.40
2018-07-02T21:59:51.624Z,71.41
2018-07-02T22:02:20.433Z,71.58
2018-07-02T22:04:49.249Z,72.17
2018-07-02T22:07:18.418Z,72.45
2018-07-02T22:09:47.187Z,72.69
2018-07-02T22:12:16.028Z,72.39
2018-07-02T22:14:44.695Z,72.44
2018-07-02T22:17:13.367Z,72.93
2018-07-02T22:19:42.173Z,72.78
2018-07-02T22:22:10.907Z,72.74
2018-07-02T22:24:39.630Z,72.84
2018-07-02T22:27:08.383Z,73.00
2018-07-02T22:29:37.204Z,73.10
2018-07-02T22:32:06.300Z,73.06
2018-07-02T22:34:35.073Z,73.03
2018-07-02T22:37:03.827Z,73.60
2018-07-02T22:39:32.646Z,73.24
2018-07-02T22:42:01.404Z,73.45
2018-07-02T22:44:30.074Z,73.46
2018-07-02T22:46:58.751Z,73.57
2018-07-02T22:49:27.402Z,73.53
2018-07-02T22:51:56.123Z,73.63
2018-07-02T22:54:24.845Z,73.88
2018-07-02T22:56:53.636Z,73.40
2018-07-02T22:59:22.353Z,73.22
2018-07-02T23:01:51.104Z,73.43
2018-07-02T23:04:19.792Z,73.51
2018-07-02T23:06:48.464Z,73.70
2018-07-02T23:09:17.220Z,73.78
2018-07-02T23:11:45.869Z,73.83
2018-07-02T23:14:14.506Z,74.25
2018-07-02T23:16:43.237Z,74.25
2018-07-02T23:19:18.215Z,74.55
2018-07-02T23:21:46.910Z,74.56
2018-07-02T23:24:15.571Z,74.99
2018-07-02T23:26:44.275Z,74.98
2018-07-02T23:29:12.990Z,75.01
2018-07-02T23:31:41.710Z,75.35
2018-07-02T23:34:10.591Z,75.11
2018-07-02T23:36:39.325Z,75.34
2018-07-02T23:39:11.104Z,75.46
2018-07-02T23:41:39.847Z,75.73
2018-07-02T23:44:08.514Z,75.60
2018-07-02T23:46:37.275Z,75.69
2018-07-02T23:49:06.068Z,75.71
2018-07-02T23:51:34.751Z,75.87
2018-07-02T23:54:03.458Z,75.66
2018-07-02T23:56:32.225Z,75.73
2018-07-02T23:59:00.935Z,75.27
